< < Back
Terminal Aerodrome Forecast


Current Version              Previous Versions:   1  2  3  4  5  6  7  8  9  

Terminal Aerodrome Forecast

298
FTUS44 KBMX 042326
TAFMGM
TAF
KMGM 042326Z 0500/0524 20005KT P6SM SCT050=

Latest METAR

206
SAUS80 KWBC 050800 RRB
MTRMGM
METAR KMGM 050753Z AUTO 00000KT 10SM CLR 24/21 A3002 RMK AO2 SLP163
T02440211


USA.gov is the U.S. government's official web portal to all federal, state and local government web resources and services.